This is the latest recevied weather packets stored in our database for station/object KF0JJO. If no packets are shown the sender has not sent any weather packets the latest 10 day(s).
| Time | Temp. | Humidity | Pressure | Rain* | Wind** | Luminosity | Snow |
|---|---|---|---|---|---|---|---|
| 1777333720 | 8.89° C | 92% | 1030.8 hPa | 1.27 mm | - | 52 W/m² | - |
| 1777333417 | 8.89° C | 92% | 1030.6 hPa | 1.27 mm | - | 53 W/m² | - |
| 1777333115 | 8.89° C | 92% | 1030.6 hPa | 0 mm | - | 59 W/m² | - |
| 1777332813 | 9.44° C | 92% | 1030.6 hPa | 0 mm | - | 51 W/m² | - |
| 1777332509 | 10° C | 93% | 1030.6 hPa | 0 mm | - | 35 W/m² | - |
| 1777332206 | 10° C | 94% | 1030.4 hPa | 0 mm | - | 39 W/m² | - |
| 1777331904 | 10° C | 93% | 1030.3 hPa | 1.78 mm | - | 56 W/m² | - |
| 1777331601 | 10° C | 93% | 1030.3 hPa | 1.78 mm | - | 38 W/m² | - |
| 1777331298 | 10° C | 93% | 1030.3 hPa | 0 mm | - | 41 W/m² | - |
| 1777330995 | 10.56° C | 93% | 1030 hPa | 0 mm | - | 46 W/m² | - |
| 1777330691 | 10.56° C | 93% | 1029.7 hPa | 0 mm | - | 57 W/m² | - |
| 1777330389 | 11.11° C | 91% | 1029.5 hPa | 1.27 mm | - | 51 W/m² | - |
| 1777330087 | 11.67° C | 92% | 1029.4 hPa | 0 mm | - | 47 W/m² | - |
| 1777329786 | 12.78° C | 92% | 1029.2 hPa | 1.78 mm | - | 51 W/m² | - |
| 1777329484 | 12.78° C | 94% | 1029 hPa | 0 mm | - | 23 W/m² | - |
| 1777329181 | 12.78° C | 94% | 1029.2 hPa | 0 mm | - | 53 W/m² | - |
| 1777328878 | 12.78° C | 95% | 1029.2 hPa | 0 mm | - | 31 W/m² | - |
| 1777328576 | 13.33° C | 95% | 1029.2 hPa | 0 mm | - | 22 W/m² | - |
| 1777328274 | 13.33° C | 95% | 1028.8 hPa | 0 mm | - | 44 W/m² | - |
| 1777327972 | 13.33° C | 95% | 1029 hPa | 0 mm | - | 51 W/m² | - |
| 1777327670 | 13.33° C | 95% | 1028.6 hPa | 0 mm | - | 111 W/m² | - |
| 1777327366 | 13.33° C | 96% | 1028.6 hPa | 0 mm | - | 61 W/m² | - |
| 1777327064 | 13.33° C | 96% | 1028.3 hPa | 0 mm | - | 38 W/m² | - |
| 1777326761 | 13.33° C | 95% | 1028.3 hPa | 1.27 mm | - | 47 W/m² | - |
| 1777326458 | 13.33° C | 95% | 1027.3 hPa | 1.27 mm | - | 108 W/m² | - |
* Rain latest hour (hover to see other rain measurements)
** Current wind speed in m/s (hover to see current wind gust speed)